Time;durP1;ratioP1;P1;durP2;ratioP2;P2;SDS_P1;SDS_P2;PMS_P1;PMS_P2;Temp;Humidity;BMP_temperature;BMP_pressure;BME280_temperature;BME280_humidity;BME280_pressure;Samples;Min_cycle;Max_cycle;Signal;HPM_P1;HPM_P2
2022/07/11 00:02:01;;;;;;;4.40;0.70;;;;;;;15.27;65.07;100436.50;10443551;28;20055;-71
2022/07/11 00:07:04;;;;;;;2.42;0.80;;;;;;;15.23;65.20;100428.75;10461030;28;20151;-72
2022/07/11 00:12:06;;;;;;;3.17;0.70;;;;;;;15.03;66.29;100432.28;10445669;28;20048;-73
2022/07/11 00:17:09;;;;;;;3.55;1.02;;;;;;;14.87;66.75;100427.69;10462424;28;20064;-72
2022/07/11 00:22:10;;;;;;;2.97;0.65;;;;;;;14.79;67.45;100428.94;10461360;28;20044;-72
2022/07/11 00:27:13;;;;;;;4.63;0.70;;;;;;;14.71;68.01;100431.03;10461132;28;20397;-72
2022/07/11 00:32:15;;;;;;;1.80;0.60;;;;;;;14.69;68.08;100428.44;10444093;28;20528;-71
2022/07/11 00:37:17;;;;;;;3.53;0.70;;;;;;;14.62;69.04;100432.28;10462844;28;20076;-72
2022/07/11 00:42:19;;;;;;;1.85;0.63;;;;;;;14.52;69.47;100426.53;10443313;28;20040;-71
2022/07/11 00:47:21;;;;;;;3.40;1.05;;;;;;;14.38;70.32;100427.03;10443234;28;20414;-72
2022/07/11 00:52:23;;;;;;;2.33;0.80;;;;;;;14.29;70.64;100423.91;10442131;28;20071;-72
2022/07/11 00:57:24;;;;;;;3.80;0.90;;;;;;;14.38;70.68;100424.38;10444457;28;20063;-72
2022/07/11 01:02:26;;;;;;;3.15;0.70;;;;;;;14.32;70.75;100421.16;10460978;28;20055;-72
2022/07/11 01:07:30;;;;;;;3.13;1.10;;;;;;;14.35;70.68;100421.03;10442170;28;20486;-73
2022/07/11 01:12:32;;;;;;;1.98;0.75;;;;;;;14.29;70.79;100422.13;10441815;28;20060;-72
2022/07/11 01:17:34;;;;;;;1.15;0.60;;;;;;;14.08;71.70;100425.66;10442919;28;20060;-72
2022/07/11 01:22:38;;;;;;;3.85;0.70;;;;;;;13.97;72.40;100423.44;10461673;28;20045;-71
2022/07/11 01:27:40;;;;;;;2.75;0.60;;;;;;;14.10;72.36;100431.72;10441090;28;20045;-71
2022/07/11 01:32:42;;;;;;;2.47;0.70;;;;;;;13.96;73.15;100424.34;10457973;28;20057;-72
2022/07/11 01:37:48;;;;;;;2.92;0.85;;;;;;;13.89;73.31;100431.66;10459720;28;20072;-71
2022/07/11 01:42:50;;;;;;;2.60;0.82;;;;;;;13.71;74.46;100436.78;10461183;28;20053;-71
2022/07/11 01:47:52;;;;;;;2.15;1.02;;;;;;;13.58;74.97;100437.25;10464437;28;20041;-72
2022/07/11 01:52:54;;;;;;;1.45;0.65;;;;;;;13.52;75.93;100439.28;10454610;28;20512;-72
2022/07/11 01:57:55;;;;;;;2.45;0.70;;;;;;;13.52;75.69;100445.41;10454734;28;20521;-71
2022/07/11 02:03:01;;;;;;;2.85;0.75;;;;;;;13.53;76.25;100443.63;10474796;28;20041;-72
2022/07/11 02:08:12;;;;;;;1.60;0.60;;;;;;;13.37;76.71;100433.66;10472059;28;20041;-72
2022/07/11 02:13:20;;;;;;;2.58;0.80;;;;;;;13.34;77.24;100436.41;10454301;28;20073;-72
2022/07/11 02:18:21;;;;;;;3.05;0.90;;;;;;;13.43;76.74;100435.19;10454312;28;20082;-72
2022/07/11 02:23:23;;;;;;;2.40;0.73;;;;;;;13.46;76.20;100435.09;10454434;28;20111;-72
2022/07/11 02:28:25;;;;;;;3.42;1.13;;;;;;;13.44;76.01;100431.63;10473817;28;20041;-72
2022/07/11 02:33:27;;;;;;;4.20;1.00;;;;;;;13.56;75.39;100436.47;10470845;28;20049;-72
2022/07/11 02:38:28;;;;;;;2.50;0.80;;;;;;;13.58;74.90;100437.25;10453223;28;20064;-72
2022/07/11 02:43:30;;;;;;;3.45;0.98;;;;;;;13.50;76.26;100433.16;10471363;28;20072;-71
2022/07/11 02:48:32;;;;;;;4.00;1.20;;;;;;;13.44;76.22;100438.69;10454952;28;20041;-72
2022/07/11 02:53:33;;;;;;;3.22;0.90;;;;;;;13.48;76.28;100442.94;10470502;28;20040;-72
2022/07/11 02:58:35;;;;;;;2.40;0.82;;;;;;;13.51;75.93;100445.47;10449963;28;20060;-72
2022/07/11 03:03:36;;;;;;;2.20;0.75;;;;;;;13.34;75.99;100443.47;10462934;28;20644;-71
2022/07/11 03:08:39;;;;;;;2.50;0.90;;;;;;;13.43;74.86;100448.41;10465896;28;20037;-72
2022/07/11 03:13:41;;;;;;;3.15;0.80;;;;;;;13.47;74.12;100460.56;10463583;28;20051;-72
2022/07/11 03:18:43;;;;;;;3.50;0.95;;;;;;;13.51;73.32;100462.19;10463756;28;20045;-71
2022/07/11 03:23:45;;;;;;;3.70;1.00;;;;;;;13.35;73.87;100464.50;10464299;28;20424;-71
2022/07/11 03:28:47;;;;;;;3.42;0.85;;;;;;;13.44;73.50;100470.38;10445497;28;20045;-73
2022/07/11 03:33:48;;;;;;;2.25;0.82;;;;;;;13.45;73.14;100475.59;10447263;28;20044;-73
2022/07/11 03:38:50;;;;;;;4.70;1.17;;;;;;;13.36;73.65;100473.28;10462416;28;20052;-73
2022/07/11 03:43:52;;;;;;;3.72;1.10;;;;;;;13.29;74.65;100472.66;10462950;28;20052;-72
2022/07/11 03:48:53;;;;;;;3.15;1.00;;;;;;;13.34;74.13;100476.00;10444926;28;20041;-72
2022/07/11 03:53:55;;;;;;;3.80;0.80;;;;;;;13.37;73.69;100485.59;10445844;28;20098;-73
2022/07/11 03:58:57;;;;;;;2.67;1.13;;;;;;;13.49;72.40;100477.22;10462238;28;20037;-72
2022/07/11 04:03:59;;;;;;;3.45;1.10;;;;;;;13.54;71.41;100472.63;10462009;28;20395;-72
2022/07/11 04:09:01;;;;;;;4.05;0.93;;;;;;;13.44;71.39;100478.31;10444133;28;20048;-72
2022/07/11 04:14:03;;;;;;;3.33;0.98;;;;;;;13.37;71.09;100475.91;10446266;28;20041;-72
2022/07/11 04:19:04;;;;;;;3.72;0.93;;;;;;;13.55;70.74;100484.94;10462016;28;20052;-72
2022/07/11 04:24:06;;;;;;;4.68;0.90;;;;;;;13.40;72.20;100482.81;10442994;28;20060;-72
2022/07/11 04:29:08;;;;;;;3.47;1.20;;;;;;;13.58;71.15;100484.78;10444383;28;20048;-72
2022/07/11 04:34:09;;;;;;;3.28;0.90;;;;;;;13.58;71.12;100486.56;10443072;28;20045;-72
2022/07/11 04:39:11;;;;;;;3.88;1.25;;;;;;;13.60;71.62;100484.75;10462602;28;20144;-72
2022/07/11 04:44:13;;;;;;;5.78;1.10;;;;;;;13.74;70.69;100494.81;10460621;28;20127;-73
2022/07/11 04:49:15;;;;;;;3.92;1.35;;;;;;;13.82;70.24;100495.38;10459281;28;20041;-72
2022/07/11 04:54:16;;;;;;;5.07;1.20;;;;;;;14.06;67.99;100498.84;10459681;28;20049;-72
2022/07/11 04:59:18;;;;;;;4.75;0.75;;;;;;;14.18;66.99;100494.88;10460716;28;20048;-72
2022/07/11 05:04:20;;;;;;;3.67;1.00;;;;;;;13.99;68.33;100502.66;10443348;28;20065;-71
2022/07/11 05:09:22;;;;;;;3.95;1.20;;;;;;;14.40;65.86;100503.69;10424731;28;20048;-72
2022/07/11 05:14:23;;;;;;;5.15;0.90;;;;;;;14.30;66.54;100505.00;10458652;28;20045;-72
2022/07/11 05:19:25;;;;;;;3.10;0.80;;;;;;;14.51;65.69;100504.13;10443298;28;20051;-72
2022/07/11 05:24:27;;;;;;;8.95;1.67;;;;;;;14.69;65.56;100509.59;10459176;28;20048;-72
2022/07/11 05:29:28;;;;;;;5.20;1.50;;;;;;;14.68;65.01;100510.53;10440427;28;20045;-73
2022/07/11 05:34:30;;;;;;;2.22;0.88;;;;;;;14.90;63.84;100514.00;10459364;28;20069;-73
2022/07/11 05:39:32;;;;;;;3.58;1.17;;;;;;;15.09;63.56;100517.59;10456821;28;20047;-72
2022/07/11 05:44:34;;;;;;;2.55;0.80;;;;;;;15.44;62.80;100523.16;10458685;28;20044;-73
2022/07/11 05:49:35;;;;;;;4.32;0.93;;;;;;;15.79;60.47;100518.09;10458106;28;20068;-74
2022/07/11 05:54:37;;;;;;;3.03;1.10;;;;;;;15.79;60.28;100521.59;10485190;23;20516;-72
2022/07/11 05:59:39;;;;;;;4.00;0.95;;;;;;;16.29;58.76;100529.03;10499221;28;20047;-72
2022/07/11 06:04:42;;;;;;;3.17;0.85;;;;;;;16.53;57.66;100528.75;10499065;28;20048;-72
2022/07/11 06:09:44;;;;;;;2.97;0.98;;;;;;;16.83;57.19;100527.28;10480705;28;20037;-72
2022/07/11 06:14:45;;;;;;;3.40;1.00;;;;;;;16.74;56.79;100537.50;10494446;28;20440;-73
2022/07/11 06:19:48;;;;;;;3.47;0.90;;;;;;;16.61;56.89;100538.06;10494485;28;20036;-71
2022/07/11 06:24:50;;;;;;;4.75;2.13;;;;;;;16.18;58.79;100531.31;10477060;28;20064;-73
2022/07/11 06:29:52;;;;;;;4.78;0.80;;;;;;;16.48;58.38;100531.66;10500325;28;20040;-73
2022/07/11 06:34:53;;;;;;;4.40;0.93;;;;;;;16.33;57.61;100535.88;10502094;28;20055;-73
2022/07/11 06:39:55;;;;;;;5.47;1.10;;;;;;;16.55;57.29;100527.75;10506101;28;20049;-72
2022/07/11 06:44:57;;;;;;;4.15;0.90;;;;;;;17.11;57.11;100536.53;10488339;28;20094;-73
2022/07/11 06:49:58;;;;;;;3.03;0.90;;;;;;;17.43;55.31;100539.31;10506584;28;20059;-73
2022/07/11 06:55:01;;;;;;;4.22;0.88;;;;;;;17.38;54.16;100540.41;10505735;28;20047;-72
2022/07/11 07:00:05;;;;;;;2.50;0.73;;;;;;;17.45;53.18;100542.78;10505789;28;20128;-73
2022/07/11 07:05:07;;;;;;;2.45;0.65;;;;;;;17.11;53.97;100544.50;10504719;28;20044;-73
2022/07/11 07:10:14;;;;;;;6.20;0.80;;;;;;;17.12;53.94;100549.72;10505235;28;20040;-73
2022/07/11 07:15:15;;;;;;;2.40;0.70;;;;;;;16.47;55.33;100543.19;10505213;28;20040;-73
2022/07/11 07:20:17;;;;;;;3.50;0.70;;;;;;;17.14;55.24;100544.34;10488942;28;20045;-73
2022/07/11 07:25:19;;;;;;;2.28;0.68;;;;;;;17.82;52.11;100549.69;10471679;28;20506;-72
2022/07/11 07:30:21;;;;;;;2.75;0.75;;;;;;;17.69;52.94;100557.41;10504220;28;20049;-72
2022/07/11 07:35:22;;;;;;;3.97;0.80;;;;;;;17.06;54.18;100552.69;10503879;28;20460;-72
2022/07/11 07:40:24;;;;;;;1.67;0.70;;;;;;;17.98;52.72;100547.91;10485563;28;20132;-73
2022/07/11 07:45:28;;;;;;;2.70;0.60;;;;;;;18.42;49.15;100557.91;10485761;28;20053;-72
2022/07/11 07:50:30;;;;;;;5.38;0.90;;;;;;;17.59;51.71;100557.03;10503633;28;20075;-73
2022/07/11 07:55:32;;;;;;;3.90;0.90;;;;;;;17.48;52.24;100572.69;10503682;28;20124;-73
2022/07/11 08:05:53;;;;;;;2.60;0.70;;;;;;;17.38;51.09;100572.31;10503349;28;20040;-74
2022/07/11 08:10:55;;;;;;;3.35;0.90;;;;;;;18.10;51.02;100562.34;10502694;28;20049;-72
2022/07/11 08:16:18;;;;;;;2.42;0.65;;;;;;;17.87;50.16;100564.44;10503021;28;20489;-73
2022/07/11 08:21:19;;;;;;;2.38;0.52;;;;;;;17.53;51.10;100568.00;10485070;28;20583;-74
2022/07/11 08:26:21;;;;;;;32.08;1.85;;;;;;;17.70;48.40;100560.94;10502469;28;20032;-74
2022/07/11 08:31:29;;;;;;;1.40;0.68;;;;;;;18.06;49.20;100551.03;10502960;28;20048;-74
2022/07/11 08:36:34;;;;;;;2.42;0.57;;;;;;;18.76;46.85;100548.03;10501060;28;20043;-74
2022/07/11 08:41:43;;;;;;;2.27;0.60;;;;;;;18.78;45.81;100556.81;10502024;28;20071;-74
2022/07/11 08:46:45;;;;;;;2.80;0.82;;;;;;;17.85;48.55;100562.81;10502128;28;20046;-73
2022/07/11 08:51:47;;;;;;;2.90;0.60;;;;;;;19.24;46.65;100551.44;10483463;28;20051;-74
2022/07/11 08:56:50;;;;;;;3.92;0.88;;;;;;;19.50;44.12;100541.88;10499352;28;20123;-73
2022/07/11 09:01:57;;;;;;;2.97;0.80;;;;;;;18.95;44.64;100547.81;10500189;28;20053;-72
2022/07/11 09:07:01;;;;;;;4.05;0.52;;;;;;;19.65;41.66;100538.31;10501003;28;20438;-72
2022/07/11 09:12:14;;;;;;;1.25;0.32;;;;;;;19.62;41.59;100541.19;10482881;28;20502;-73
2022/07/11 09:17:24;;;;;;;2.20;0.40;;;;;;;20.42;41.62;100537.00;10501302;28;20052;-72
2022/07/11 09:27:52;;;;;;;2.50;0.50;;;;;;;19.76;41.12;100533.19;10499382;28;20033;-71
2022/07/11 09:32:59;;;;;;;2.08;0.40;;;;;;;20.56;39.75;100522.78;10481354;28;20048;-73
2022/07/11 09:38:09;;;;;;;2.85;0.82;;;;;;;20.72;39.51;100527.97;10482234;28;20111;-72
2022/07/11 09:43:10;;;;;;;3.42;0.70;;;;;;;20.82;39.79;100529.09;10499691;28;20051;-72
2022/07/11 09:48:13;;;;;;;1.50;0.38;;;;;;;21.70;37.85;100527.53;10499625;28;20454;-72
2022/07/11 09:53:15;;;;;;;1.50;0.45;;;;;;;21.49;37.87;100510.28;10498964;28;20048;-74
2022/07/11 09:58:17;;;;;;;1.50;0.20;;;;;;;21.97;35.93;100510.47;10499088;28;20115;-73
2022/07/11 10:03:21;;;;;;;1.35;0.30;;;;;;;20.99;38.51;100515.44;10498821;28;20044;-74
2022/07/11 10:08:43;;;;;;;1.58;0.22;;;;;;;21.75;37.13;100503.13;10487652;28;20036;-71
2022/07/11 10:13:45;;;;;;;1.38;0.40;;;;;;;21.47;38.76;100517.56;10506560;28;20049;-71
2022/07/11 10:18:56;;;;;;;1.42;0.20;;;;;;;21.51;38.48;100503.88;10507086;28;20045;-72
2022/07/11 10:24:13;;;;;;;1.23;0.38;;;;;;;21.62;37.40;100509.31;10507894;28;20037;-72
2022/07/11 10:29:25;;;;;;;0.93;0.20;;;;;;;21.84;36.46;100502.47;10488322;28;20044;-72
2022/07/11 10:34:27;;;;;;;1.40;0.35;;;;;;;22.25;36.46;100502.19;10506170;28;20045;-73
2022/07/11 10:39:30;;;;;;;2.05;0.30;;;;;;;22.23;36.19;100493.41;10506253;28;20155;-73
2022/07/11 10:44:49;;;;;;;1.42;0.40;;;;;;;22.31;36.46;100501.75;10505466;28;20132;-73
2022/07/11 10:49:52;;;;;;;1.25;0.20;;;;;;;22.68;34.91;100490.97;10471472;28;20044;-72
2022/07/11 10:55:03;;;;;;;1.55;0.40;;;;;;;23.11;33.12;100496.66;10505171;28;20033;-73
2022/07/11 11:00:08;;;;;;;1.35;0.40;;;;;;;22.75;34.76;100500.25;10506230;28;20048;-73
2022/07/11 11:05:10;;;;;;;0.97;0.20;;;;;;;21.82;36.56;100507.06;10504797;28;20059;-72
2022/07/11 11:10:18;;;;;;;1.05;0.30;;;;;;;22.54;35.67;100494.69;10488938;28;20032;-73
2022/07/11 11:15:38;;;;;;;0.55;0.30;;;;;;;23.45;33.58;100485.97;10505429;28;20044;-73
2022/07/11 11:20:40;;;;;;;0.52;0.20;;;;;;;23.36;34.46;100492.91;10485982;28;20049;-72
2022/07/11 11:25:49;;;;;;;0.80;0.30;;;;;;;23.49;33.33;100483.91;10486421;28;20052;-73
2022/07/11 11:30:58;;;;;;;0.75;0.30;;;;;;;23.66;33.81;100486.16;10504904;28;20053;-72
2022/07/11 11:36:04;;;;;;;0.28;0.13;;;;;;;23.40;33.96;100480.97;10506065;28;20040;-72
2022/07/11 11:41:07;;;;;;;0.70;0.10;;;;;;;23.88;32.95;100483.44;10486474;28;20041;-72
2022/07/11 11:46:08;;;;;;;1.13;0.20;;;;;;;24.30;32.22;100474.72;10503396;28;20044;-73
2022/07/11 11:51:43;;;;;;;2.72;0.28;;;;;;;23.45;34.08;100479.75;10504966;28;20037;-75
2022/07/11 11:56:45;;;;;;;0.40;0.20;;;;;;;23.08;35.00;100478.09;10380193;28;20056;-73
2022/07/11 12:01:48;;;;;;;0.80;0.20;;;;;;;23.46;33.43;100482.31;10362984;28;20046;-73
2022/07/11 12:06:50;;;;;;;1.88;0.30;;;;;;;23.20;34.33;100476.31;10381150;28;20049;-72
2022/07/11 12:12:43;;;;;;;0.80;0.20;;;;;;;23.97;31.57;100481.88;10380205;28;20049;-74
2022/07/11 12:17:14;;;;;;;0.43;0.20;;;;;;;23.72;33.08;100474.06;10373975;28;20061;-73
2022/07/11 12:22:15;;;;;;;1.55;0.20;;;;;;;23.90;32.14;100461.84;10379514;28;20431;-73
2022/07/11 12:27:22;;;;;;;1.00;0.15;;;;;;;24.17;32.58;100478.41;10378886;28;20607;-72
2022/07/11 12:32:24;;;;;;;0.43;0.20;;;;;;;24.18;31.35;100465.84;10383614;28;20077;-73
2022/07/11 12:37:37;;;;;;;0.40;0.10;;;;;;;24.70;31.32;100464.22;10380392;28;20042;-73
2022/07/11 12:42:39;;;;;;;0.25;0.20;;;;;;;24.42;32.31;100468.38;10379664;28;20056;-73
2022/07/11 12:47:41;;;;;;;1.85;0.35;;;;;;;23.87;32.74;100457.59;10377449;28;20057;-72
2022/07/11 12:52:48;;;;;;;1.38;0.20;;;;;;;24.51;30.64;100459.53;10378570;28;20042;-73
2022/07/11 12:58:08;;;;;;;0.80;0.40;;;;;;;23.52;31.98;100457.69;10379066;28;20088;-73
2022/07/11 13:03:10;;;;;;;0.85;0.22;;;;;;;24.09;32.27;100453.16;10379574;28;20042;-72
2022/07/11 13:08:44;;;;;;;1.00;0.20;;;;;;;24.08;32.27;100455.00;10380818;28;20096;-73
2022/07/11 13:13:48;;;;;;;0.57;0.30;;;;;;;22.89;33.66;100467.94;10379344;28;20133;-72
2022/07/11 13:18:50;;;;;;;2.97;0.35;;;;;;;21.90;34.40;100454.69;10385469;28;20084;-73
2022/07/11 13:23:52;;;;;;;1.70;0.30;;;;;;;21.85;34.97;100448.81;10378658;28;20069;-74
2022/07/11 13:28:54;;;;;;;1.23;0.32;;;;;;;22.93;33.30;100455.13;10376609;28;20053;-73
2022/07/11 13:33:56;;;;;;;0.52;0.20;;;;;;;22.68;33.55;100453.47;10377921;28;20062;-73
2022/07/11 13:38:58;;;;;;;1.80;0.20;;;;;;;22.51;33.75;100456.53;10379307;28;20513;-72
2022/07/11 13:44:00;;;;;;;0.40;0.13;;;;;;;22.58;32.51;100449.78;10376617;28;20057;-73
2022/07/11 13:49:02;;;;;;;0.63;0.35;;;;;;;21.98;34.95;100454.16;10378373;28;20116;-73
2022/07/11 13:54:03;;;;;;;1.08;0.20;;;;;;;22.12;34.00;100447.81;10378023;28;20530;-73
2022/07/11 13:59:05;;;;;;;0.73;0.30;;;;;;;22.24;33.63;100456.78;10362608;28;20138;-72
2022/07/11 14:04:07;;;;;;;1.88;0.22;;;;;;;21.85;34.97;100450.66;10376616;28;20050;-73
2022/07/11 14:09:08;;;;;;;0.63;0.30;;;;;;;22.43;33.14;100451.75;10372290;28;20133;-71
2022/07/11 14:14:10;;;;;;;0.75;0.20;;;;;;;22.33;33.50;100446.22;10351165;28;20046;-72
2022/07/11 14:19:12;;;;;;;1.50;0.20;;;;;;;22.23;34.41;100444.38;10338440;28;20053;-72
2022/07/11 14:24:14;;;;;;;0.70;0.25;;;;;;;22.05;33.97;100436.69;10318730;28;20145;-72
2022/07/11 14:29:16;;;;;;;6.30;0.63;;;;;;;21.86;34.60;100447.84;10317676;28;20043;-73
2022/07/11 14:34:18;;;;;;;0.60;0.20;;;;;;;21.80;34.63;100448.31;10318168;28;20050;-74
2022/07/11 14:39:20;;;;;;;1.42;0.30;;;;;;;21.96;33.79;100440.03;10335712;28;20074;-72
2022/07/11 14:44:21;;;;;;;2.00;0.30;;;;;;;23.20;32.58;100433.41;10377905;28;20042;-74
2022/07/11 14:49:23;;;;;;;0.93;0.30;;;;;;;23.26;33.01;100432.91;10408404;28;20121;-73
2022/07/11 14:54:25;;;;;;;0.50;0.28;;;;;;;23.18;32.83;100429.97;10398828;28;20042;-72
2022/07/11 14:59:27;;;;;;;0.80;0.30;;;;;;;23.30;32.26;100430.84;10425135;28;20038;-73
2022/07/11 15:04:28;;;;;;;5.03;0.40;;;;;;;23.23;32.47;100422.41;10428406;28;20067;-76
2022/07/11 15:14:52;;;;;;;4.03;0.17;;;;;;;23.29;33.11;100429.16;10425460;28;20041;-74
2022/07/11 15:19:54;;;;;;;3.35;0.30;;;;;;;23.13;32.77;100433.00;10424819;28;20042;-73
2022/07/11 15:24:56;;;;;;;1.30;0.30;;;;;;;23.54;32.20;100428.03;10408339;28;20045;-75
2022/07/11 15:29:58;;;;;;;0.80;0.35;;;;;;;23.64;32.17;100429.00;10423417;28;20170;-74
2022/07/11 15:34:59;;;;;;;1.38;0.30;;;;;;;23.30;32.84;100414.75;10424414;28;20041;-73
2022/07/11 15:40:02;;;;;;;1.13;0.20;;;;;;;24.19;31.03;100418.34;10421902;28;20052;-73
2022/07/11 15:45:08;;;;;;;0.80;0.32;;;;;;;24.32;31.03;100413.66;10422109;28;20103;-74
2022/07/11 15:50:10;;;;;;;0.63;0.30;;;;;;;25.46;29.26;100419.16;10392386;28;20049;-74
2022/07/11 15:55:12;;;;;;;0.90;0.35;;;;;;;24.57;30.26;100434.84;10379424;28;20038;-74
2022/07/11 16:00:13;;;;;;;0.85;0.20;;;;;;;24.14;30.75;100429.47;10363847;28;20057;-73
2022/07/11 16:05:16;;;;;;;0.70;0.20;;;;;;;24.25;30.64;100425.88;10362372;28;20038;-73
2022/07/11 16:10:18;;;;;;;0.57;0.30;;;;;;;24.15;30.16;100425.78;10382255;28;20414;-73
2022/07/11 16:15:19;;;;;;;0.50;0.20;;;;;;;24.03;30.73;100433.00;10379383;28;20094;-74
2022/07/11 16:20:22;;;;;;;2.80;0.30;;;;;;;23.60;31.78;100438.31;10376865;28;20418;-73
2022/07/11 16:25:24;;;;;;;0.93;0.50;;;;;;;23.90;31.19;100435.00;10376010;28;20052;-72
2022/07/11 16:30:32;;;;;;;0.82;0.25;;;;;;;23.88;31.49;100429.75;10377996;28;20038;-72
2022/07/11 16:35:34;;;;;;;2.58;0.50;;;;;;;23.76;31.78;100421.84;10377918;28;20435;-74
2022/07/11 16:45:57;;;;;;;1.13;0.20;;;;;;;23.85;30.91;100431.84;10378601;28;20488;-73
2022/07/11 16:51:00;;;;;;;0.55;0.25;;;;;;;23.72;30.90;100431.13;10379371;28;20202;-74
2022/07/11 16:56:04;;;;;;;2.33;0.50;;;;;;;23.10;32.21;100433.25;10382635;28;20034;-73
2022/07/11 17:01:07;;;;;;;1.23;0.60;;;;;;;22.73;32.60;100431.66;10377909;28;20042;-72
2022/07/11 17:06:11;;;;;;;0.95;0.90;;;;;;;22.15;33.04;100436.88;10377343;28;20084;-72
2022/07/11 17:11:14;;;;;;;0.68;0.60;;;;;;;22.04;33.50;100437.63;10377962;28;20416;-72
2022/07/11 17:16:16;;;;;;;0.93;0.28;;;;;;;21.96;33.74;100429.31;10379310;28;20072;-73
2022/07/11 17:21:18;;;;;;;0.57;0.20;;;;;;;22.12;33.00;100435.28;10376690;28;20042;-72
2022/07/11 17:26:20;;;;;;;0.28;0.25;;;;;;;22.13;33.04;100428.97;10379092;28;20041;-73
2022/07/11 17:31:24;;;;;;;1.27;0.40;;;;;;;21.90;33.73;100435.94;10378542;28;20041;-72
2022/07/11 17:36:29;;;;;;;0.98;0.30;;;;;;;22.04;33.40;100442.13;10378777;28;20064;-73
2022/07/11 17:41:31;;;;;;;0.30;0.30;;;;;;;21.80;33.85;100442.09;10339490;28;20492;-73
2022/07/11 17:46:33;;;;;;;2.53;0.30;;;;;;;21.49;33.62;100443.44;10334665;28;20046;-71
2022/07/11 17:56:56;;;;;;;1.73;0.17;;;;;;;21.50;34.38;100446.00;10408268;28;20049;-72
2022/07/11 18:01:58;;;;;;;0.50;0.25;;;;;;;21.28;34.34;100449.28;10418425;28;20056;-73
2022/07/11 18:07:00;;;;;;;0.50;0.40;;;;;;;21.17;34.86;100451.84;10458161;28;20557;-73
2022/07/11 18:12:03;;;;;;;0.40;0.28;;;;;;;21.13;35.19;100445.00;10458211;28;20049;-72
2022/07/11 18:17:05;;;;;;;0.80;0.47;;;;;;;21.34;34.64;100456.06;10458741;28;20451;-73
2022/07/11 18:22:07;;;;;;;0.85;0.40;;;;;;;21.01;35.46;100449.38;10442450;28;20037;-72
2022/07/11 18:27:09;;;;;;;0.73;0.50;;;;;;;20.94;35.77;100447.22;10460221;28;20049;-72
2022/07/11 18:32:11;;;;;;;1.13;0.50;;;;;;;20.82;36.22;100449.78;10466089;28;20080;-72
2022/07/11 18:37:13;;;;;;;0.70;0.52;;;;;;;20.58;36.69;100448.75;10466905;28;20448;-73
2022/07/11 18:42:15;;;;;;;3.85;1.00;;;;;;;20.61;36.85;100445.88;10459628;28;20051;-72
2022/07/11 18:47:17;;;;;;;1.90;0.70;;;;;;;20.23;37.94;100459.03;10467071;28;20041;-72
2022/07/11 18:52:23;;;;;;;1.65;0.60;;;;;;;20.29;37.76;100458.66;10465887;28;20041;-72
2022/07/11 18:57:25;;;;;;;0.63;0.40;;;;;;;20.16;37.74;100455.94;10467463;28;20037;-74
2022/07/11 19:02:27;;;;;;;2.10;0.60;;;;;;;20.16;38.13;100456.78;10465675;28;20063;-73
2022/07/11 19:07:29;;;;;;;1.50;0.63;;;;;;;20.05;38.51;100458.44;10463650;28;20045;-73
2022/07/11 19:12:31;;;;;;;2.47;0.90;;;;;;;19.81;38.55;100458.19;10465414;28;20045;-73
2022/07/11 19:17:32;;;;;;;1.38;0.80;;;;;;;19.55;39.66;100460.66;10464235;28;20045;-73
2022/07/11 19:22:34;;;;;;;2.15;1.30;;;;;;;19.49;39.41;100466.38;10464152;28;20049;-73
2022/07/11 19:27:36;;;;;;;0.93;0.80;;;;;;;19.35;39.43;100477.03;10464054;28;20491;-74
2022/07/11 19:32:38;;;;;;;1.02;0.90;;;;;;;19.07;40.30;100475.16;10466160;28;20049;-73
2022/07/11 19:37:40;;;;;;;3.28;1.10;;;;;;;19.08;39.96;100482.19;10464196;28;20394;-73
2022/07/11 19:42:42;;;;;;;1.52;0.80;;;;;;;18.88;40.48;100491.41;10461078;28;20131;-72
2022/07/11 19:47:44;;;;;;;1.17;0.63;;;;;;;18.63;41.50;100494.59;10463424;28;20045;-74
2022/07/11 19:52:46;;;;;;;1.85;0.55;;;;;;;18.67;40.98;100501.47;10464040;28;20048;-74
2022/07/11 19:57:48;;;;;;;0.68;0.45;;;;;;;18.47;41.79;100509.75;10462536;28;20037;-76
2022/07/11 20:02:54;;;;;;;0.93;0.40;;;;;;;18.46;41.67;100506.22;10461939;28;20521;-73
2022/07/11 20:07:56;;;;;;;1.17;0.47;;;;;;;18.55;41.80;100516.34;10445618;28;20048;-74
2022/07/11 20:12:57;;;;;;;1.00;0.57;;;;;;;18.38;42.02;100521.78;10463210;28;20048;-73
2022/07/11 20:17:59;;;;;;;0.98;0.60;;;;;;;18.35;42.04;100521.94;10462398;28;20190;-74
2022/07/11 20:23:01;;;;;;;2.13;0.82;;;;;;;18.14;42.92;100530.16;10463351;28;20094;-73
2022/07/11 20:28:03;;;;;;;1.48;0.80;;;;;;;18.15;42.47;100529.25;10462919;28;20047;-74
2022/07/11 20:33:05;;;;;;;1.33;0.75;;;;;;;18.09;42.62;100523.38;10462546;28;20410;-74
2022/07/11 20:38:06;;;;;;;0.60;0.60;;;;;;;18.14;42.70;100524.84;10461158;28;20041;-73
2022/07/11 20:43:08;;;;;;;0.90;0.50;;;;;;;18.00;42.92;100538.03;10461398;28;20079;-73
2022/07/11 20:48:10;;;;;;;0.82;0.40;;;;;;;17.74;43.59;100538.59;10462492;28;20497;-74
2022/07/11 20:53:11;;;;;;;2.70;0.50;;;;;;;17.84;43.41;100547.78;10460078;28;20041;-74
2022/07/11 20:58:13;;;;;;;1.13;0.50;;;;;;;17.83;43.15;100538.09;10461860;28;20048;-74
2022/07/11 21:03:16;;;;;;;3.22;2.20;;;;;;;17.74;43.49;100544.75;10461545;28;20049;-74
2022/07/11 21:08:18;;;;;;;1.48;1.17;;;;;;;17.49;43.79;100542.53;10462409;28;20045;-75
2022/07/11 21:13:19;;;;;;;1.40;0.75;;;;;;;17.63;43.62;100547.97;10443977;28;20044;-73
2022/07/11 21:18:21;;;;;;;1.55;0.60;;;;;;;17.60;43.39;100542.81;10460648;28;20064;-73
2022/07/11 21:23:23;;;;;;;1.80;0.80;;;;;;;17.39;43.88;100547.44;10460808;28;20131;-74
2022/07/11 21:28:25;;;;;;;1.50;1.00;;;;;;;17.40;43.93;100553.66;10443346;28;20403;-73
2022/07/11 21:33:27;;;;;;;0.90;0.52;;;;;;;17.25;44.32;100552.59;10443026;28;20057;-73
2022/07/11 21:38:29;;;;;;;1.20;0.60;;;;;;;17.10;44.71;100554.25;10442406;28;20504;-74
2022/07/11 21:43:31;;;;;;;1.70;0.40;;;;;;;17.30;44.23;100555.03;10442331;28;20049;-72
2022/07/11 21:48:33;;;;;;;1.98;0.50;;;;;;;17.14;44.55;100550.50;10443145;28;20145;-72
2022/07/11 21:53:34;;;;;;;1.25;0.70;;;;;;;17.07;44.91;100551.75;10461732;28;20047;-73
2022/07/11 21:58:36;;;;;;;0.93;0.50;;;;;;;17.00;44.88;100554.78;10443998;28;20079;-73
2022/07/11 22:03:38;;;;;;;1.08;0.63;;;;;;;16.89;45.47;100565.94;10460946;28;20528;-73
2022/07/11 22:08:40;;;;;;;2.40;0.75;;;;;;;16.80;45.63;100572.56;10469907;28;20067;-72
2022/07/11 22:13:41;;;;;;;2.00;0.60;;;;;;;16.34;47.40;100564.16;10469224;28;20041;-73
2022/07/11 22:18:43;;;;;;;1.48;0.60;;;;;;;16.07;48.39;100576.91;10468151;28;20489;-73
2022/07/11 22:23:45;;;;;;;1.35;0.52;;;;;;;15.86;49.32;100568.13;10450901;28;20045;-72
2022/07/11 22:28:48;;;;;;;1.55;0.90;;;;;;;15.72;50.09;100578.50;10468708;28;20041;-73
2022/07/11 22:33:50;;;;;;;1.23;0.63;;;;;;;15.53;50.58;100573.09;10468601;28;20044;-73
2022/07/11 22:38:52;;;;;;;0.90;0.57;;;;;;;15.44;50.92;100577.94;10467358;28;20068;-73
2022/07/11 22:43:53;;;;;;;1.70;0.85;;;;;;;15.44;51.13;100570.84;10467168;28;20040;-72
2022/07/11 22:48:55;;;;;;;2.20;0.70;;;;;;;15.29;52.12;100568.84;10466145;28;20504;-73
2022/07/11 22:53:57;;;;;;;1.25;0.70;;;;;;;15.10;52.59;100571.44;10464914;28;20048;-72
2022/07/11 22:59:00;;;;;;;0.77;0.60;;;;;;;14.99;53.07;100577.16;10465337;28;20533;-72
2022/07/11 23:04:02;;;;;;;1.23;0.80;;;;;;;14.85;53.57;100583.00;10465225;28;20120;-72
2022/07/11 23:09:04;;;;;;;1.98;0.65;;;;;;;14.82;53.77;100575.19;10465104;28;20067;-73
2022/07/11 23:14:08;;;;;;;1.70;0.60;;;;;;;14.75;54.15;100576.38;10462706;28;20136;-73
2022/07/11 23:19:10;;;;;;;0.95;0.77;;;;;;;14.84;54.71;100580.44;10463775;28;20041;-73
2022/07/11 23:24:12;;;;;;;1.17;0.77;;;;;;;14.64;55.46;100583.88;10463793;28;20513;-73
2022/07/11 23:29:13;;;;;;;2.67;0.70;;;;;;;14.48;55.76;100578.34;10463979;28;20482;-73
2022/07/11 23:34:15;;;;;;;1.52;0.70;;;;;;;14.80;55.35;100577.06;10464068;28;20087;-72
2022/07/11 23:39:17;;;;;;;1.15;0.60;;;;;;;14.45;55.86;100574.91;10445968;28;20059;-74